Time;durP1;ratioP1;P1;durP2;ratioP2;P2;SDS_P1;SDS_P2;PMS_P1;PMS_P2;Temp;Humidity;BMP_temperature;BMP_pressure;BME280_temperature;BME280_humidity;BME280_pressure;Samples;Min_cycle;Max_cycle;Signal;HPM_P1;HPM_P2
2022/04/03 00:01:30;;;;;;;5.82;4.35;;;0.30;99.90;;;;;;5078666;28;20028;-79
2022/04/03 00:03:56;;;;;;;5.00;3.95;;;0.30;99.90;;;;;;5095027;28;20043;-77
2022/04/03 00:06:22;;;;;;;5.95;4.07;;;0.30;99.90;;;;;;5096495;28;20031;-79
2022/04/03 00:08:48;;;;;;;5.10;4.60;;;0.30;99.90;;;;;;5097612;28;20381;-78
2022/04/03 00:11:14;;;;;;;7.10;3.70;;;0.30;99.90;;;;;;5106949;28;20059;-77
2022/04/03 00:13:40;;;;;;;5.72;4.53;;;0.30;99.90;;;;;;5107568;28;20107;-78
2022/04/03 00:16:06;;;;;;;5.97;4.82;;;0.30;99.90;;;;;;5101004;28;20085;-80
2022/04/03 00:18:33;;;;;;;4.85;3.88;;;0.30;99.90;;;;;;5087511;28;20033;-77
2022/04/03 00:21:00;;;;;;;5.57;3.80;;;0.30;99.90;;;;;;5093034;28;20024;-78
2022/04/03 00:23:26;;;;;;;5.78;3.97;;;0.40;99.90;;;;;;5088998;28;20277;-79
2022/04/03 00:25:52;;;;;;;4.82;4.03;;;0.30;99.90;;;;;;5078263;28;20036;-77
2022/04/03 00:28:21;;;;;;;5.57;4.03;;;0.30;99.90;;;;;;5096209;28;20073;-77
2022/04/03 00:30:47;;;;;;;4.00;3.38;;;0.30;99.90;;;;;;5077103;28;20072;-77
2022/04/03 00:33:13;;;;;;;4.15;3.75;;;0.40;99.90;;;;;;5094067;28;20366;-78
2022/04/03 00:35:40;;;;;;;4.30;3.58;;;0.30;99.90;;;;;;5076389;28;20424;-77
2022/04/03 00:38:07;;;;;;;4.45;3.53;;;0.30;99.90;;;;;;5095460;28;20059;-78
2022/04/03 00:40:33;;;;;;;4.97;3.67;;;0.30;99.90;;;;;;5095577;28;20131;-78
2022/04/03 00:43:03;;;;;;;7.68;3.25;;;0.30;99.90;;;;;;5094955;28;20028;-77
2022/04/03 00:45:28;;;;;;;5.93;4.13;;;0.30;99.90;;;;;;5094923;28;20035;-78
2022/04/03 00:47:59;;;;;;;4.00;3.42;;;0.30;99.90;;;;;;5077175;28;20028;-78
2022/04/03 00:50:25;;;;;;;5.18;3.38;;;0.30;99.90;;;;;;5095621;28;20030;-78
2022/04/03 00:52:50;;;;;;;4.45;3.67;;;0.30;99.90;;;;;;5093739;28;20087;-78
2022/04/03 00:55:16;;;;;;;4.07;3.22;;;0.30;99.90;;;;;;5094942;28;20089;-78
2022/04/03 00:57:43;;;;;;;4.60;3.78;;;0.30;99.90;;;;;;5094850;28;20084;-77
2022/04/03 01:00:12;;;;;;;4.97;3.72;;;0.30;99.90;;;;;;5094762;28;20012;-78
2022/04/03 01:02:39;;;;;;;5.50;3.85;;;0.30;99.90;;;;;;5095161;28;20024;-78
2022/04/03 01:05:05;;;;;;;4.35;3.75;;;0.30;99.90;;;;;;5095258;28;20036;-78
2022/04/03 01:07:32;;;;;;;4.38;3.63;;;0.30;99.90;;;;;;5094525;28;20019;-77
2022/04/03 01:09:59;;;;;;;5.05;3.88;;;0.30;99.90;;;;;;5093793;28;20107;-79
2022/04/03 01:12:25;;;;;;;4.43;3.85;;;0.30;99.90;;;;;;5094785;28;20757;-81
2022/04/03 01:14:51;;;;;;;4.43;3.90;;;0.30;99.90;;;;;;5094566;28;20032;-80
2022/04/03 01:17:16;;;;;;;4.50;3.97;;;0.30;99.90;;;;;;5094537;28;20051;-79
2022/04/03 01:19:42;;;;;;;6.60;4.03;;;0.30;99.90;;;;;;5094613;28;20446;-79
2022/04/03 01:22:09;;;;;;;5.00;4.13;;;0.30;99.90;;;;;;5094450;28;20020;-80
2022/04/03 01:24:35;;;;;;;4.68;3.83;;;0.30;99.90;;;;;;5094704;28;20035;-80
2022/04/03 01:27:01;;;;;;;5.72;3.83;;;0.30;99.90;;;;;;5093295;28;20028;-81
2022/04/03 01:29:27;;;;;;;6.28;5.47;;;0.30;99.90;;;;;;5094586;28;20526;-80
2022/04/03 01:31:53;;;;;;;6.07;5.32;;;0.30;99.90;;;;;;5094364;28;20381;-80
2022/04/03 01:34:20;;;;;;;4.95;4.45;;;0.30;99.90;;;;;;5093017;28;20024;-79
2022/04/03 01:36:47;;;;;;;5.43;4.93;;;0.30;99.90;;;;;;5076145;28;20020;-79
2022/04/03 01:39:14;;;;;;;4.70;3.85;;;0.30;99.90;;;;;;5094186;28;20039;-78
2022/04/03 01:41:43;;;;;;;5.93;4.82;;;0.30;99.90;;;;;;5092899;28;20108;-78
2022/04/03 01:44:13;;;;;;;6.18;4.65;;;0.30;99.90;;;;;;5093814;28;20098;-80
2022/04/03 01:46:39;;;;;;;5.93;5.07;;;0.30;99.90;;;;;;5094118;28;20444;-78
2022/04/03 01:49:06;;;;;;;5.85;5.35;;;0.30;99.90;;;;;;5093944;28;20024;-78
2022/04/03 01:51:33;;;;;;;5.63;4.88;;;0.30;99.90;;;;;;5094224;28;20024;-78
2022/04/03 01:54:00;;;;;;;7.43;5.28;;;0.40;99.90;;;;;;5076645;28;20024;-79
2022/04/03 01:56:26;;;;;;;6.45;4.82;;;0.30;99.90;;;;;;5094481;28;20512;-78
2022/04/03 01:58:51;;;;;;;5.35;4.85;;;0.30;99.90;;;;;;5093657;28;20012;-80
2022/04/03 02:01:17;;;;;;;5.07;4.32;;;0.30;99.90;;;;;;5094924;28;20110;-80
2022/04/03 02:03:43;;;;;;;4.88;4.47;;;0.30;99.90;;;;;;5093887;28;20073;-79
2022/04/03 02:06:09;;;;;;;4.63;4.18;;;0.30;99.90;;;;;;5093528;28;20027;-80
2022/04/03 02:08:35;;;;;;;5.68;4.55;;;0.30;99.90;;;;;;5093869;28;20166;-78
2022/04/03 02:11:00;;;;;;;5.65;5.05;;;0.30;99.90;;;;;;5075026;28;20044;-80
2022/04/03 02:13:26;;;;;;;8.43;4.53;;;0.30;99.90;;;;;;5092103;28;20035;-81
2022/04/03 02:15:53;;;;;;;6.15;4.97;;;0.30;99.90;;;;;;5094791;28;20401;-79
2022/04/03 02:18:19;;;;;;;6.15;4.03;;;0.30;99.90;;;;;;5094822;28;20024;-79
2022/04/03 02:20:45;;;;;;;4.95;4.13;;;0.30;99.90;;;;;;5098038;28;20027;-78
2022/04/03 02:23:11;;;;;;;6.28;5.10;;;0.30;99.90;;;;;;5104998;28;20028;-79
2022/04/03 02:25:37;;;;;;;5.75;4.57;;;0.30;99.90;;;;;;5106799;28;20028;-79
2022/04/03 02:28:04;;;;;;;6.50;5.00;;;0.30;99.90;;;;;;5100725;28;20048;-79
2022/04/03 02:30:30;;;;;;;6.15;5.00;;;0.30;99.90;;;;;;5096814;28;20106;-80
2022/04/03 02:32:56;;;;;;;6.32;5.15;;;0.30;99.90;;;;;;5095366;28;20091;-80
2022/04/03 02:35:22;;;;;;;6.47;4.45;;;0.30;99.90;;;;;;5095345;28;20028;-79
2022/04/03 02:37:48;;;;;;;5.30;4.80;;;0.30;99.90;;;;;;5088911;28;20041;-79
2022/04/03 02:40:16;;;;;;;4.68;3.83;;;0.30;99.90;;;;;;5075920;28;20132;-79
2022/04/03 02:42:42;;;;;;;3.75;3.20;;;0.30;99.90;;;;;;5093839;28;20016;-79
2022/04/03 02:45:12;;;;;;;4.43;3.65;;;0.30;99.90;;;;;;5092701;28;20028;-78
2022/04/03 02:47:39;;;;;;;4.93;3.42;;;0.30;99.90;;;;;;5091380;28;20026;-78
2022/04/03 02:50:06;;;;;;;4.93;4.03;;;0.30;99.90;;;;;;5094014;28;20035;-80
2022/04/03 02:52:32;;;;;;;3.63;2.85;;;0.30;99.90;;;;;;5076051;28;20115;-79
2022/04/03 02:54:58;;;;;;;3.85;3.47;;;0.30;99.90;;;;;;5093403;28;20070;-79
2022/04/03 02:57:24;;;;;;;3.80;3.50;;;0.30;99.90;;;;;;5074987;28;20020;-79
2022/04/03 02:59:50;;;;;;;5.10;4.15;;;0.20;99.90;;;;;;5092721;28;20070;-79
2022/04/03 03:02:16;;;;;;;3.80;3.40;;;0.20;99.90;;;;;;5093038;28;20024;-80
2022/04/03 03:04:42;;;;;;;3.97;3.40;;;0.20;99.90;;;;;;5064060;28;20569;-79
2022/04/03 03:07:09;;;;;;;4.82;3.72;;;0.20;99.90;;;;;;5072517;28;20072;-79
2022/04/03 03:09:35;;;;;;;3.72;3.15;;;0.30;99.90;;;;;;5072454;28;20035;-80
2022/04/03 03:12:01;;;;;;;4.50;3.28;;;0.30;99.90;;;;;;5072242;28;20040;-80
2022/04/03 03:14:27;;;;;;;5.28;3.38;;;0.20;99.90;;;;;;5072158;28;20032;-80
2022/04/03 03:16:53;;;;;;;4.78;3.38;;;0.20;99.90;;;;;;5072429;28;20028;-79
2022/04/03 03:19:19;;;;;;;4.10;3.03;;;0.20;99.90;;;;;;5073752;28;20051;-78
2022/04/03 03:21:45;;;;;;;4.70;3.38;;;0.20;99.90;;;;;;5092423;28;20055;-79
2022/04/03 03:24:11;;;;;;;3.67;3.08;;;0.20;99.90;;;;;;5074116;28;20557;-80
2022/04/03 03:26:37;;;;;;;4.40;3.45;;;0.20;99.90;;;;;;5092822;28;20129;-80
2022/04/03 03:29:03;;;;;;;5.13;3.50;;;0.20;99.90;;;;;;5092547;28;20027;-80
2022/04/03 03:31:29;;;;;;;4.25;3.10;;;0.30;99.90;;;;;;5092287;28;20848;-81
2022/04/03 03:33:55;;;;;;;4.57;3.55;;;0.20;99.90;;;;;;5096348;28;20020;-80
2022/04/03 03:36:21;;;;;;;5.22;3.60;;;0.20;99.90;;;;;;5096740;28;20532;-80
2022/04/03 03:38:47;;;;;;;5.10;3.47;;;0.30;99.90;;;;;;5096513;28;20097;-80
2022/04/03 03:41:14;;;;;;;3.70;2.90;;;0.30;99.90;;;;;;5096529;28;20103;-78
2022/04/03 03:43:44;;;;;;;4.82;3.05;;;0.30;99.90;;;;;;5096261;28;20020;-79
2022/04/03 03:46:10;;;;;;;5.35;3.97;;;0.20;99.90;;;;;;5096479;28;20028;-79
2022/04/03 03:48:37;;;;;;;4.10;2.92;;;0.20;99.90;;;;;;5096203;28;20024;-79
2022/04/03 03:51:03;;;;;;;4.25;3.25;;;0.20;99.90;;;;;;5096099;28;20016;-79
2022/04/03 03:53:29;;;;;;;4.93;3.65;;;0.20;99.90;;;;;;5094971;28;20024;-79
2022/04/03 03:55:56;;;;;;;5.22;3.85;;;0.20;99.90;;;;;;5096178;28;20035;-79
2022/04/03 03:58:22;;;;;;;5.55;2.88;;;0.20;99.70;;;;;;5096124;28;20028;-79
2022/04/03 04:00:47;;;;;;;4.13;3.35;;;0.20;99.70;;;;;;5078185;28;20319;-78
2022/04/03 04:03:13;;;;;;;4.72;3.70;;;0.20;99.70;;;;;;5099438;28;20157;-77
2022/04/03 04:05:40;;;;;;;3.78;3.08;;;0.20;99.90;;;;;;5100065;28;20036;-79
2022/04/03 04:08:07;;;;;;;5.20;3.40;;;0.30;99.90;;;;;;5100758;28;20030;-78
2022/04/03 04:10:33;;;;;;;5.00;3.00;;;0.30;99.80;;;;;;5096268;28;20524;-78
2022/04/03 04:12:59;;;;;;;7.15;3.65;;;0.30;99.80;;;;;;5096131;28;20554;-78
2022/04/03 04:15:28;;;;;;;3.80;3.00;;;0.30;99.70;;;;;;5097340;28;20392;-79
2022/04/03 04:17:54;;;;;;;4.72;3.25;;;0.30;99.30;;;;;;5096994;28;20020;-78
2022/04/03 04:20:21;;;;;;;4.88;3.35;;;0.30;99.30;;;;;;5096662;28;20393;-76
2022/04/03 04:22:49;;;;;;;6.27;3.43;;;0.30;99.10;;;;;;5097271;28;20017;-78
2022/04/03 04:25:15;;;;;;;;;;;0.30;99.30;;;;;;5095430;28;20064;-77
2022/04/03 04:27:45;;;;;;;5.00;2.92;;;0.30;99.70;;;;;;5077444;28;19951;-79
2022/04/03 04:30:13;;;;;;;4.30;3.58;;;0.30;99.40;;;;;;5095286;28;20024;-78
2022/04/03 04:32:39;;;;;;;5.68;3.78;;;0.30;99.30;;;;;;5095935;28;20020;-79
2022/04/03 04:35:05;;;;;;;3.63;3.30;;;0.30;99.10;;;;;;5097853;28;20024;-76
2022/04/03 04:37:32;;;;;;;4.20;2.50;;;0.30;99.10;;;;;;5096811;28;20017;-78
2022/04/03 04:39:58;;;;;;;4.43;3.65;;;0.30;98.90;;;;;;5096015;28;20131;-78
2022/04/03 04:42:23;;;;;;;4.20;3.15;;;0.30;99.00;;;;;;5096176;28;20527;-78
2022/04/03 04:44:50;;;;;;;5.57;3.22;;;0.30;99.10;;;;;;5095100;28;20048;-79
2022/04/03 04:47:16;;;;;;;4.50;4.03;;;0.30;99.20;;;;;;5094028;28;20020;-79
2022/04/03 04:49:42;;;;;;;8.00;3.78;;;0.30;99.50;;;;;;5095194;28;20489;-78
2022/04/03 04:52:07;;;;;;;7.15;4.20;;;0.30;99.50;;;;;;5076673;28;20052;-79
2022/04/03 04:54:35;;;;;;;4.68;3.63;;;0.30;99.30;;;;;;5076631;28;20504;-78
2022/04/03 04:57:01;;;;;;;4.43;3.90;;;0.30;99.40;;;;;;5095024;28;20355;-77
2022/04/03 04:59:27;;;;;;;4.18;2.83;;;0.30;99.70;;;;;;5076335;28;20521;-79
2022/04/03 05:01:56;;;;;;;9.07;3.88;;;0.30;99.70;;;;;;5076233;28;20063;-78
2022/04/03 05:04:23;;;;;;;4.63;3.75;;;0.30;99.70;;;;;;5094799;28;20035;-79
2022/04/03 05:06:50;;;;;;;6.55;3.92;;;0.30;99.80;;;;;;5094709;28;20027;-78
2022/04/03 05:09:17;;;;;;;7.47;3.13;;;0.30;99.40;;;;;;5094946;28;20028;-81
2022/04/03 05:11:46;;;;;;;4.65;3.17;;;0.30;99.30;;;;;;5092678;28;20068;-81
2022/04/03 05:14:13;;;;;;;4.45;3.40;;;0.30;99.10;;;;;;5094372;28;20479;-79
2022/04/03 05:16:39;;;;;;;7.30;3.30;;;0.30;99.10;;;;;;5077074;28;20028;-81
2022/04/03 05:19:06;;;;;;;5.13;3.70;;;0.30;99.00;;;;;;5096492;28;20035;-80
2022/04/03 05:21:32;;;;;;;3.97;3.43;;;0.40;98.60;;;;;;5095924;28;20470;-80
2022/04/03 05:23:58;;;;;;;4.53;3.30;;;0.40;98.60;;;;;;5094978;28;20078;-80
2022/04/03 05:26:24;;;;;;;4.60;3.53;;;0.40;98.60;;;;;;5094439;28;20382;-82
2022/04/03 05:28:50;;;;;;;5.65;3.05;;;0.30;98.20;;;;;;5093489;28;20020;-82
2022/04/03 05:31:17;;;;;;;4.57;3.85;;;0.40;98.50;;;;;;5094458;28;20039;-83
2022/04/03 05:33:43;;;;;;;4.10;3.15;;;0.40;98.20;;;;;;5076155;28;20032;-81
2022/04/03 05:36:09;;;;;;;5.53;3.40;;;0.40;97.80;;;;;;5094027;28;20362;-79
2022/04/03 05:38:35;;;;;;;4.47;3.42;;;0.30;98.00;;;;;;5076111;28;20062;-81
2022/04/03 05:41:00;;;;;;;4.80;3.65;;;0.40;98.00;;;;;;5094050;28;20418;-79
2022/04/03 05:43:26;;;;;;;4.95;3.47;;;0.40;98.00;;;;;;5094318;28;20034;-80
2022/04/03 05:45:52;;;;;;;3.50;3.20;;;0.40;98.10;;;;;;5095254;28;20028;-81
2022/04/03 05:48:18;;;;;;;6.22;4.28;;;0.40;97.70;;;;;;5097004;28;20065;-80
2022/04/03 05:50:44;;;;;;;4.75;3.95;;;0.40;97.70;;;;;;5095608;28;20024;-81
2022/04/03 05:53:10;;;;;;;4.50;3.58;;;0.40;97.40;;;;;;5095040;28;20024;-80
2022/04/03 05:55:36;;;;;;;9.07;3.90;;;0.30;97.60;;;;;;5096827;28;20032;-82
2022/04/03 05:58:02;;;;;;;4.85;3.53;;;0.40;97.80;;;;;;5113732;28;20024;-82
2022/04/03 06:00:29;;;;;;;4.03;2.95;;;0.40;97.40;;;;;;5096056;28;20128;-83
2022/04/03 06:03:00;;;;;;;5.72;3.85;;;0.40;97.40;;;;;;5093215;28;20028;-83
2022/04/03 06:05:31;;;;;;;3.35;2.95;;;0.30;97.70;;;;;;5093652;28;20040;-84
2022/04/03 06:07:57;;;;;;;6.00;3.75;;;0.30;97.50;;;;;;5076134;28;20413;-84
2022/04/03 06:10:24;;;;;;;5.60;4.03;;;0.30;97.20;;;;;;5098892;28;20052;-84
2022/04/03 06:13:13;;;;;;;5.82;3.72;;;0.30;96.90;;;;;;5093838;28;20035;-85
2022/04/03 06:15:40;;;;;;;2.58;2.20;;;0.30;96.70;;;;;;5074891;28;20560;-82
2022/04/03 06:18:26;;;;;;;4.75;3.80;;;0.40;96.10;;;;;;5075274;28;20481;-81
2022/04/03 06:20:52;;;;;;;6.25;3.63;;;0.30;96.70;;;;;;5100199;28;20036;-81
2022/04/03 06:23:22;;;;;;;3.88;3.10;;;0.30;96.80;;;;;;5090495;28;20020;-81
2022/04/03 06:25:52;;;;;;;3.55;2.60;;;0.40;96.80;;;;;;5094594;28;20027;-83
2022/04/03 06:28:19;;;;;;;4.18;3.20;;;0.40;96.90;;;;;;5106134;28;20026;-85
2022/04/03 06:30:46;;;;;;;3.30;2.95;;;0.40;95.30;;;;;;5097349;28;20056;-83
2022/04/03 06:33:12;;;;;;;;;;;0.40;95.10;;;;;;5094792;28;20020;-84
2022/04/03 06:35:38;;;;;;;4.38;3.53;;;0.40;95.60;;;;;;5093337;28;19911;-85
2022/04/03 06:38:04;;;;;;;3.95;3.20;;;0.40;96.30;;;;;;5094386;28;20028;-84
2022/04/03 06:40:32;;;;;;;4.45;3.70;;;0.30;95.30;;;;;;5091658;28;20099;-86
2022/04/03 06:42:58;;;;;;;5.80;3.15;;;0.30;95.70;;;;;;5077753;28;20023;-83
2022/04/03 06:45:26;;;;;;;7.40;3.47;;;0.40;95.70;;;;;;5080802;28;20028;-83
2022/04/03 06:47:52;;;;;;;4.50;2.75;;;0.30;95.10;;;;;;5100942;28;20052;-83
2022/04/03 06:50:19;;;;;;;5.90;3.28;;;0.30;94.90;;;;;;5092352;28;20031;-80
2022/04/03 06:52:45;;;;;;;3.92;3.03;;;0.30;95.50;;;;;;5072104;28;20030;-80
2022/04/03 06:55:10;;;;;;;4.30;2.97;;;0.30;95.90;;;;;;5059135;28;20023;-81
2022/04/03 06:57:37;;;;;;;5.07;3.40;;;0.30;95.40;;;;;;5092565;28;20031;-80
2022/04/03 07:00:08;;;;;;;4.72;3.33;;;0.30;95.40;;;;;;5092673;28;20047;-80
2022/04/03 07:02:34;;;;;;;4.00;2.85;;;0.30;95.40;;;;;;5092413;28;20016;-80
2022/04/03 07:05:00;;;;;;;6.28;3.90;;;0.30;95.90;;;;;;5091455;28;20035;-80
2022/04/03 07:07:26;;;;;;;8.40;4.75;;;0.30;96.20;;;;;;5091681;28;20382;-77
2022/04/03 07:09:53;;;;;;;3.53;3.22;;;0.30;96.20;;;;;;5092389;28;20028;-79
2022/04/03 07:12:19;;;;;;;5.67;3.63;;;0.30;95.90;;;;;;5092179;28;20063;-80
2022/04/03 07:14:46;;;;;;;6.05;4.60;;;0.30;95.80;;;;;;5092236;28;20022;-81
2022/04/03 07:17:12;;;;;;;5.03;3.78;;;0.30;96.00;;;;;;5092893;28;20028;-81
2022/04/03 07:19:37;;;;;;;5.78;3.58;;;0.30;95.70;;;;;;5092239;28;20051;-80
2022/04/03 07:22:04;;;;;;;3.42;2.97;;;0.30;94.50;;;;;;5091092;28;20491;-80
2022/04/03 07:24:30;;;;;;;6.25;3.30;;;0.20;95.30;;;;;;5093568;28;20070;-86
2022/04/03 07:26:56;;;;;;;4.57;3.58;;;0.20;95.50;;;;;;5094195;28;20334;-83
2022/04/03 07:29:25;;;;;;;5.68;4.18;;;0.30;94.30;;;;;;5093209;28;20020;-81
2022/04/03 07:31:51;;;;;;;5.15;4.10;;;0.20;95.20;;;;;;5092476;28;20030;-79
2022/04/03 07:34:18;;;;;;;4.90;4.05;;;0.20;95.30;;;;;;5074214;28;20785;-79
2022/04/03 07:36:44;;;;;;;5.30;3.60;;;0.30;95.40;;;;;;5092282;28;20025;-81
2022/04/03 07:39:10;;;;;;;8.68;4.35;;;0.30;95.00;;;;;;5091568;28;20039;-82
2022/04/03 07:41:39;;;;;;;6.88;3.45;;;0.30;94.70;;;;;;5074210;28;20127;-82
2022/04/03 07:44:09;;;;;;;4.70;4.07;;;0.30;94.30;;;;;;5092197;28;20090;-84
2022/04/03 07:46:36;;;;;;;7.57;3.65;;;0.20;94.80;;;;;;5092235;28;20113;-80
2022/04/03 07:49:03;;;;;;;4.90;4.10;;;0.30;95.50;;;;;;5092038;28;20027;-81
2022/04/03 07:51:47;;;;;;;5.38;4.57;;;0.30;95.20;;;;;;5091100;28;20020;-80
2022/04/03 07:54:14;;;;;;;6.40;5.10;;;0.30;94.80;;;;;;5088201;28;20024;-79
2022/04/03 07:56:40;;;;;;;6.07;4.87;;;0.20;94.40;;;;;;5092457;28;20020;-80
2022/04/03 07:59:06;;;;;;;8.40;5.40;;;0.20;94.60;;;;;;5092157;28;20099;-81
2022/04/03 08:01:35;;;;;;;6.70;5.32;;;0.30;94.60;;;;;;5091687;28;20490;-79
2022/04/03 08:04:01;;;;;;;5.63;4.00;;;0.30;94.60;;;;;;5087940;28;20048;-79
2022/04/03 08:06:27;;;;;;;9.38;5.25;;;0.30;94.60;;;;;;5071737;28;20505;-80
2022/04/03 08:08:53;;;;;;;6.22;4.10;;;0.30;94.30;;;;;;5083365;28;20485;-78
2022/04/03 08:11:19;;;;;;;8.50;4.55;;;0.30;94.00;;;;;;5091095;28;20040;-80
2022/04/03 08:13:47;;;;;;;5.40;3.83;;;0.30;93.30;;;;;;5091381;28;20073;-78
2022/04/03 08:16:14;;;;;;;4.53;3.45;;;0.30;93.30;;;;;;5092016;28;20024;-77
2022/04/03 08:18:39;;;;;;;7.57;4.05;;;0.30;93.50;;;;;;5091922;28;20385;-79
2022/04/03 08:21:05;;;;;;;5.28;4.53;;;0.30;93.20;;;;;;5095598;28;20031;-79
2022/04/03 08:23:31;;;;;;;6.18;3.90;;;0.40;93.40;;;;;;5095247;28;20081;-81
2022/04/03 08:25:57;;;;;;;9.18;4.07;;;0.40;93.60;;;;;;5076822;28;20043;-80
2022/04/03 08:28:23;;;;;;;6.03;3.90;;;0.40;93.80;;;;;;5077221;28;20331;-80
2022/04/03 08:30:49;;;;;;;4.95;4.05;;;0.40;94.00;;;;;;5095489;28;20116;-78
2022/04/03 08:33:15;;;;;;;9.18;4.10;;;0.40;93.10;;;;;;5095325;28;20043;-80
2022/04/03 08:35:41;;;;;;;5.75;4.35;;;0.50;93.40;;;;;;5095127;28;20028;-78
2022/04/03 08:38:08;;;;;;;5.65;4.38;;;0.50;93.30;;;;;;5095613;28;20097;-76
2022/04/03 08:40:35;;;;;;;5.72;4.43;;;0.40;92.40;;;;;;5094357;28;20078;-79
2022/04/03 08:43:02;;;;;;;4.80;4.00;;;0.40;91.90;;;;;;5095776;28;20095;-80
2022/04/03 08:45:28;;;;;;;8.02;5.40;;;0.50;91.30;;;;;;5095208;28;20064;-78
2022/04/03 08:48:17;;;;;;;7.15;4.60;;;0.40;92.30;;;;;;5100161;28;20358;-79
2022/04/03 08:50:47;;;;;;;7.13;4.07;;;0.50;92.50;;;;;;5096773;28;20024;-76
2022/04/03 08:53:16;;;;;;;6.35;4.97;;;0.60;92.60;;;;;;5095071;28;20052;-77
2022/04/03 08:55:42;;;;;;;8.50;5.40;;;0.70;92.40;;;;;;5094460;28;20065;-77
2022/04/03 08:58:08;;;;;;;6.82;4.05;;;0.80;91.50;;;;;;5076134;28;20425;-78
2022/04/03 09:00:33;;;;;;;9.98;4.93;;;0.80;91.40;;;;;;5096726;28;20027;-77
2022/04/03 09:03:00;;;;;;;4.82;4.32;;;0.90;92.80;;;;;;5078888;28;20059;-78
2022/04/03 09:05:40;;;;;;;7.13;4.97;;;1.00;92.20;;;;;;5095873;28;20032;-79
2022/04/03 09:08:07;;;;;;;7.22;5.85;;;1.10;91.80;;;;;;5094873;28;20020;-81
2022/04/03 09:10:34;;;;;;;9.63;4.90;;;1.20;92.30;;;;;;5076726;28;20457;-80
2022/04/03 09:13:01;;;;;;;5.33;3.53;;;1.30;91.90;;;;;;5075291;28;20450;-81
2022/04/03 09:15:28;;;;;;;8.85;4.10;;;1.30;90.10;;;;;;5094866;28;20707;-84
2022/04/03 09:17:56;;;;;;;4.25;3.65;;;1.40;90.60;;;;;;5076322;28;20028;-82
2022/04/03 09:20:24;;;;;;;5.15;4.15;;;1.50;90.20;;;;;;5094392;28;20016;-81
2022/04/03 09:22:53;;;;;;;6.00;4.35;;;1.50;87.90;;;;;;5094843;28;20020;-82
2022/04/03 09:25:28;;;;;;;7.55;5.20;;;1.50;87.90;;;;;;5094783;28;20063;-78
2022/04/03 09:27:56;;;;;;;4.82;3.95;;;1.60;89.50;;;;;;5072753;28;20132;-79
2022/04/03 09:30:30;;;;;;;5.20;4.07;;;1.60;89.90;;;;;;5084721;28;20017;-79
2022/04/03 09:32:58;;;;;;;6.35;4.13;;;1.60;89.80;;;;;;5075578;28;20042;-82
2022/04/03 09:35:27;;;;;;;4.55;3.38;;;1.60;87.60;;;;;;5095266;28;20381;-79
2022/04/03 09:38:13;;;;;;;7.22;4.82;;;1.50;88.20;;;;;;5076641;28;20024;-81
2022/04/03 09:40:50;;;;;;;6.68;4.43;;;1.40;89.40;;;;;;5058180;28;20032;-80
2022/04/03 09:43:18;;;;;;;5.88;4.63;;;1.40;88.50;;;;;;5077365;28;20024;-80
2022/04/03 09:46:03;;;;;;;5.85;4.53;;;1.30;87.00;;;;;;5090104;28;20032;-79
2022/04/03 09:48:39;;;;;;;7.05;3.97;;;1.40;88.90;;;;;;5079191;28;20075;-81
2022/04/03 09:51:19;;;;;;;6.60;4.05;;;1.40;89.70;;;;;;5094039;28;20027;-82
2022/04/03 09:54:00;;;;;;;7.10;4.03;;;1.50;89.60;;;;;;5093975;28;20722;-80
2022/04/03 09:56:28;;;;;;;11.02;5.13;;;1.50;90.50;;;;;;5093704;28;20031;-83
2022/04/03 09:58:54;;;;;;;6.80;5.00;;;1.60;90.10;;;;;;5093437;28;20051;-82
2022/04/03 10:01:28;;;;;;;6.45;4.80;;;1.70;88.90;;;;;;5093242;28;20024;-79
2022/04/03 10:03:58;;;;;;;4.32;3.08;;;1.60;89.70;;;;;;5092246;28;20485;-82
2022/04/03 10:06:25;;;;;;;5.30;3.90;;;1.60;88.60;;;;;;5093601;28;20031;-82
2022/04/03 10:08:51;;;;;;;3.78;2.95;;;1.60;88.30;;;;;;5075187;28;20119;-81
2022/04/03 10:11:17;;;;;;;5.18;3.63;;;1.60;88.80;;;;;;5095322;28;20044;-79
2022/04/03 10:13:44;;;;;;;4.55;3.50;;;1.60;87.80;;;;;;5093064;28;20416;-76
2022/04/03 10:16:14;;;;;;;5.75;3.85;;;1.70;87.80;;;;;;5092888;28;20541;-77
2022/04/03 10:18:41;;;;;;;5.90;3.17;;;1.70;86.00;;;;;;5092792;28;20043;-80
2022/04/03 10:21:13;;;;;;;5.33;4.07;;;1.70;87.70;;;;;;5090904;28;20043;-79
2022/04/03 10:23:43;;;;;;;6.15;4.45;;;1.60;86.40;;;;;;5091164;28;20081;-80
2022/04/03 10:26:12;;;;;;;4.47;3.58;;;1.60;87.70;;;;;;5092817;28;20135;-82
2022/04/03 10:28:48;;;;;;;5.80;3.72;;;1.60;87.20;;;;;;5093134;28;20020;-80
2022/04/03 10:31:18;;;;;;;3.90;3.35;;;1.60;86.90;;;;;;5089925;28;20028;-82
2022/04/03 10:33:49;;;;;;;6.93;4.53;;;1.60;86.80;;;;;;5093021;28;20017;-82
2022/04/03 10:36:23;;;;;;;5.93;3.85;;;1.60;85.30;;;;;;5092995;28;20029;-81
2022/04/03 10:39:06;;;;;;;5.22;3.83;;;1.60;85.10;;;;;;5092619;28;20016;-83
2022/04/03 10:41:35;;;;;;;6.20;3.83;;;1.60;85.80;;;;;;5092235;28;20031;-84
2022/04/03 10:44:22;;;;;;;5.82;3.78;;;1.60;85.30;;;;;;5091480;28;20117;-82
2022/04/03 10:47:03;;;;;;;8.20;4.30;;;1.60;84.40;;;;;;5074184;28;20515;-83
2022/04/03 10:49:41;;;;;;;5.88;2.85;;;1.60;86.20;;;;;;5107187;28;20080;-83
2022/04/03 10:52:10;;;;;;;6.72;3.20;;;1.60;86.20;;;;;;5113083;28;20388;-83
2022/04/03 10:54:49;;;;;;;4.53;3.78;;;1.60;85.70;;;;;;5113580;28;20018;-83
2022/04/03 10:57:33;;;;;;;8.15;4.55;;;1.70;86.10;;;;;;5113353;28;20362;-82
2022/04/03 11:00:14;;;;;;;6.60;4.78;;;1.80;86.20;;;;;;5111779;28;20027;-82
2022/04/03 11:02:45;;;;;;;4.55;3.53;;;1.80;86.90;;;;;;5075110;28;20039;-79
2022/04/03 11:05:23;;;;;;;8.98;4.80;;;1.90;87.60;;;;;;5093455;28;20070;-78
2022/04/03 11:07:53;;;;;;;3.90;2.97;;;1.90;86.40;;;;;;5093244;28;20031;-78
2022/04/03 11:10:52;;;;;;;5.05;2.97;;;1.90;85.00;;;;;;5093009;28;20024;-80
2022/04/03 11:13:21;;;;;;;4.55;3.50;;;1.90;85.80;;;;;;5093355;28;20051;-78
2022/04/03 11:15:57;;;;;;;7.68;3.63;;;1.90;86.00;;;;;;5091673;28;20027;-79
2022/04/03 11:18:36;;;;;;;4.07;3.33;;;2.00;86.50;;;;;;5091474;28;20039;-81
2022/04/03 11:21:20;;;;;;;4.82;3.00;;;2.00;86.30;;;;;;5092175;28;20021;-80
2022/04/03 11:24:16;;;;;;;4.88;3.92;;;2.20;86.00;;;;;;5091728;28;20020;-80
2022/04/03 11:26:45;;;;;;;6.10;3.92;;;2.40;86.20;;;;;;5069148;28;20027;-78
2022/04/03 11:29:11;;;;;;;9.95;3.55;;;2.50;85.90;;;;;;5084111;28;20111;-79
2022/04/03 11:31:40;;;;;;;4.65;2.85;;;2.50;84.10;;;;;;5088912;28;20107;-80
2022/04/03 11:34:09;;;;;;;5.90;3.38;;;2.50;84.80;;;;;;5091295;28;20460;-78
2022/04/03 11:36:37;;;;;;;13.00;3.80;;;2.50;84.70;;;;;;5092041;28;20074;-78
2022/04/03 11:39:06;;;;;;;7.00;3.15;;;2.60;82.60;;;;;;5071184;28;20064;-77
2022/04/03 11:41:35;;;;;;;4.95;4.13;;;2.70;82.70;;;;;;5087978;28;20055;-80
2022/04/03 11:44:15;;;;;;;4.93;3.10;;;2.70;80.60;;;;;;5093599;28;20395;-80
2022/04/03 11:46:46;;;;;;;3.83;2.60;;;2.70;81.20;;;;;;5088991;28;20095;-80
2022/04/03 11:49:21;;;;;;;4.63;3.47;;;2.90;80.70;;;;;;5078215;28;20116;-79
2022/04/03 11:51:54;;;;;;;4.63;3.28;;;3.00;79.70;;;;;;5074247;28;20023;-80
2022/04/03 11:54:20;;;;;;;6.30;4.57;;;3.00;79.50;;;;;;5091303;28;20509;-81
2022/04/03 11:56:46;;;;;;;4.80;3.33;;;3.20;79.60;;;;;;5077813;28;20051;-80
2022/04/03 11:59:12;;;;;;;8.13;3.63;;;3.20;78.30;;;;;;5077703;28;20122;-79
2022/04/03 12:01:49;;;;;;;7.82;3.70;;;3.20;78.20;;;;;;5095684;28;20532;-80
2022/04/03 12:04:15;;;;;;;6.57;4.43;;;3.30;78.50;;;;;;5078925;28;20431;-80
2022/04/03 12:06:49;;;;;;;5.13;3.60;;;3.30;77.80;;;;;;5090141;28;20103;-81
2022/04/03 12:09:21;;;;;;;4.05;3.00;;;3.30;77.30;;;;;;5096675;28;20016;-80
2022/04/03 12:11:51;;;;;;;4.97;3.65;;;3.40;75.70;;;;;;5096388;28;20044;-77
2022/04/03 12:14:30;;;;;;;6.32;3.97;;;3.40;75.90;;;;;;5096485;28;20054;-79
2022/04/03 12:17:02;;;;;;;4.63;3.33;;;3.50;75.70;;;;;;5094954;28;20024;-79
2022/04/03 12:19:30;;;;;;;6.47;3.03;;;3.40;75.20;;;;;;5096359;28;20103;-78
2022/04/03 12:21:56;;;;;;;;;;;3.40;75.50;;;;;;5083145;28;20028;-79
2022/04/03 12:24:27;;;;;;;3.27;2.97;;;3.40;75.10;;;;;;5092371;28;19961;-77
2022/04/03 12:27:15;;;;;;;7.63;5.35;;;3.40;75.50;;;;;;5095413;28;20073;-78
2022/04/03 12:29:49;;;;;;;5.93;4.28;;;3.50;74.60;;;;;;5095068;28;20070;-77
2022/04/03 12:32:25;;;;;;;4.13;3.20;;;3.60;74.60;;;;;;5091284;28;20032;-80
2022/04/03 12:34:52;;;;;;;6.90;3.47;;;3.70;75.70;;;;;;5094405;28;20401;-77
2022/04/03 12:37:19;;;;;;;4.65;3.22;;;3.60;75.10;;;;;;5095260;28;20451;-75
2022/04/03 12:39:48;;;;;;;6.07;3.75;;;3.60;74.40;;;;;;5094478;28;20119;-74
2022/04/03 12:42:34;;;;;;;8.13;4.10;;;3.70;74.10;;;;;;5076623;28;20032;-76
2022/04/03 12:45:13;;;;;;;4.78;3.40;;;3.70;73.20;;;;;;5094632;28;20047;-76
2022/04/03 12:47:47;;;;;;;5.10;3.47;;;3.70;73.50;;;;;;5093640;28;20387;-76
2022/04/03 12:50:20;;;;;;;4.68;3.60;;;3.70;73.30;;;;;;5094666;28;20035;-76
2022/04/03 12:52:50;;;;;;;6.22;3.90;;;3.80;72.60;;;;;;5094852;28;20020;-77
2022/04/03 12:55:22;;;;;;;8.80;4.13;;;3.80;71.00;;;;;;5075743;28;20096;-75
2022/04/03 13:00:54;;;;;;;6.65;3.80;;;3.70;72.80;;;;;;5094501;28;20054;-77
2022/04/03 13:03:30;;;;;;;5.10;3.45;;;3.70;71.90;;;;;;5094498;28;20024;-76
2022/04/03 13:06:04;;;;;;;4.68;3.58;;;3.60;71.50;;;;;;5092540;28;20036;-77
2022/04/03 13:09:05;;;;;;;5.43;3.40;;;3.60;72.70;;;;;;5094448;28;20035;-75